sensor_id;sensor_type;location;lat;lon;timestamp;P1;durP1;ratioP1;P2;durP2;ratioP2
31920;SDS011;66485;52.128;4.436;2023-05-09T00:01:24;4.22;;;2.28;;
31920;SDS011;66485;52.128;4.436;2023-05-09T00:03:51;4.82;;;2.58;;
31920;SDS011;66485;52.128;4.436;2023-05-09T00:06:16;4.35;;;2.50;;
31920;SDS011;66485;52.128;4.436;2023-05-09T00:08:43;3.88;;;2.22;;
31920;SDS011;66485;52.128;4.436;2023-05-09T00:11:08;4.03;;;2.17;;
31920;SDS011;66485;52.128;4.436;2023-05-09T00:13:34;5.88;;;2.90;;
31920;SDS011;66485;52.128;4.436;2023-05-09T00:15:59;3.38;;;2.00;;
31920;SDS011;66485;52.128;4.436;2023-05-09T00:18:25;3.85;;;2.15;;
31920;SDS011;66485;52.128;4.436;2023-05-09T00:20:50;5.28;;;2.63;;
31920;SDS011;66485;52.128;4.436;2023-05-09T00:23:16;8.65;;;3.63;;
31920;SDS011;66485;52.128;4.436;2023-05-09T00:25:41;4.07;;;2.50;;
31920;SDS011;66485;52.128;4.436;2023-05-09T00:28:07;4.25;;;2.75;;
31920;SDS011;66485;52.128;4.436;2023-05-09T00:30:33;4.65;;;2.47;;
31920;SDS011;66485;52.128;4.436;2023-05-09T00:32:58;3.60;;;2.17;;
31920;SDS011;66485;52.128;4.436;2023-05-09T00:35:23;4.93;;;2.17;;
31920;SDS011;66485;52.128;4.436;2023-05-09T00:37:49;4.97;;;2.35;;
31920;SDS011;66485;52.128;4.436;2023-05-09T00:40:14;4.43;;;2.60;;
31920;SDS011;66485;52.128;4.436;2023-05-09T00:42:39;4.88;;;2.97;;
31920;SDS011;66485;52.128;4.436;2023-05-09T00:45:05;4.43;;;2.10;;
31920;SDS011;66485;52.128;4.436;2023-05-09T00:47:32;4.90;;;2.42;;
31920;SDS011;66485;52.128;4.436;2023-05-09T00:49:58;4.40;;;2.35;;
31920;SDS011;66485;52.128;4.436;2023-05-09T00:52:24;6.15;;;3.28;;
31920;SDS011;66485;52.128;4.436;2023-05-09T00:54:53;4.38;;;2.53;;
31920;SDS011;66485;52.128;4.436;2023-05-09T00:57:20;3.70;;;1.98;;
31920;SDS011;66485;52.128;4.436;2023-05-09T00:59:46;4.13;;;2.33;;
31920;SDS011;66485;52.128;4.436;2023-05-09T01:02:12;5.13;;;2.50;;
31920;SDS011;66485;52.128;4.436;2023-05-09T01:04:37;3.80;;;2.40;;
31920;SDS011;66485;52.128;4.436;2023-05-09T01:12:27;3.60;;;2.28;;
31920;SDS011;66485;52.128;4.436;2023-05-09T01:15:05;6.15;;;2.65;;
31920;SDS011;66485;52.128;4.436;2023-05-09T01:22:51;3.63;;;2.08;;
31920;SDS011;66485;52.128;4.436;2023-05-09T01:30:51;3.95;;;2.15;;
31920;SDS011;66485;52.128;4.436;2023-05-09T01:33:18;4.18;;;2.40;;
31920;SDS011;66485;52.128;4.436;2023-05-09T01:35:49;3.78;;;2.10;;
31920;SDS011;66485;52.128;4.436;2023-05-09T01:38:17;2.85;;;1.77;;
31920;SDS011;66485;52.128;4.436;2023-05-09T01:40:46;2.97;;;1.92;;
31920;SDS011;66485;52.128;4.436;2023-05-09T01:43:16;5.78;;;2.25;;
31920;SDS011;66485;52.128;4.436;2023-05-09T01:45:43;3.97;;;2.28;;
31920;SDS011;66485;52.128;4.436;2023-05-09T01:48:09;3.92;;;2.33;;
31920;SDS011;66485;52.128;4.436;2023-05-09T01:50:36;3.78;;;2.50;;
31920;SDS011;66485;52.128;4.436;2023-05-09T01:53:03;5.70;;;2.50;;
31920;SDS011;66485;52.128;4.436;2023-05-09T01:55:30;4.47;;;2.17;;
31920;SDS011;66485;52.128;4.436;2023-05-09T01:57:58;3.53;;;2.30;;
31920;SDS011;66485;52.128;4.436;2023-05-09T02:00:24;4.20;;;2.33;;
31920;SDS011;66485;52.128;4.436;2023-05-09T02:02:50;3.13;;;1.95;;
31920;SDS011;66485;52.128;4.436;2023-05-09T02:05:16;5.00;;;2.65;;
31920;SDS011;66485;52.128;4.436;2023-05-09T02:07:42;4.72;;;2.20;;
31920;SDS011;66485;52.128;4.436;2023-05-09T02:10:10;2.83;;;1.75;;
31920;SDS011;66485;52.128;4.436;2023-05-09T02:12:36;4.97;;;2.20;;
31920;SDS011;66485;52.128;4.436;2023-05-09T02:15:02;3.88;;;2.00;;
31920;SDS011;66485;52.128;4.436;2023-05-09T02:17:29;3.63;;;2.20;;
31920;SDS011;66485;52.128;4.436;2023-05-09T02:19:54;3.85;;;1.90;;
31920;SDS011;66485;52.128;4.436;2023-05-09T02:22:20;4.40;;;2.33;;
31920;SDS011;66485;52.128;4.436;2023-05-09T02:24:46;3.40;;;2.03;;
31920;SDS011;66485;52.128;4.436;2023-05-09T02:27:11;2.58;;;1.80;;
31920;SDS011;66485;52.128;4.436;2023-05-09T02:29:42;3.55;;;2.10;;
31920;SDS011;66485;52.128;4.436;2023-05-09T02:32:13;4.15;;;1.90;;
31920;SDS011;66485;52.128;4.436;2023-05-09T02:34:40;3.10;;;2.10;;
31920;SDS011;66485;52.128;4.436;2023-05-09T02:37:07;3.38;;;1.90;;
31920;SDS011;66485;52.128;4.436;2023-05-09T02:39:34;3.90;;;2.15;;
31920;SDS011;66485;52.128;4.436;2023-05-09T02:42:09;3.33;;;2.10;;
31920;SDS011;66485;52.128;4.436;2023-05-09T02:44:37;3.42;;;2.08;;
31920;SDS011;66485;52.128;4.436;2023-05-09T02:47:03;2.83;;;1.83;;
31920;SDS011;66485;52.128;4.436;2023-05-09T02:49:31;2.67;;;1.80;;
31920;SDS011;66485;52.128;4.436;2023-05-09T02:51:56;3.67;;;2.00;;
31920;SDS011;66485;52.128;4.436;2023-05-09T02:54:22;3.47;;;2.03;;
31920;SDS011;66485;52.128;4.436;2023-05-09T02:56:47;3.40;;;2.13;;
31920;SDS011;66485;52.128;4.436;2023-05-09T02:59:12;3.17;;;2.13;;
31920;SDS011;66485;52.128;4.436;2023-05-09T03:01:38;2.92;;;1.73;;
31920;SDS011;66485;52.128;4.436;2023-05-09T03:04:03;3.67;;;2.15;;
31920;SDS011;66485;52.128;4.436;2023-05-09T03:06:28;3.78;;;2.10;;
31920;SDS011;66485;52.128;4.436;2023-05-09T03:08:54;3.28;;;1.90;;
31920;SDS011;66485;52.128;4.436;2023-05-09T03:11:21;3.72;;;2.05;;
31920;SDS011;66485;52.128;4.436;2023-05-09T03:13:47;3.08;;;2.00;;
31920;SDS011;66485;52.128;4.436;2023-05-09T03:16:12;2.90;;;2.05;;
31920;SDS011;66485;52.128;4.436;2023-05-09T03:18:41;3.70;;;2.33;;
31920;SDS011;66485;52.128;4.436;2023-05-09T03:21:06;2.78;;;1.83;;
31920;SDS011;66485;52.128;4.436;2023-05-09T03:23:31;3.05;;;1.88;;
31920;SDS011;66485;52.128;4.436;2023-05-09T03:25:56;3.00;;;2.03;;
31920;SDS011;66485;52.128;4.436;2023-05-09T03:28:22;3.08;;;1.63;;
31920;SDS011;66485;52.128;4.436;2023-05-09T03:30:48;4.43;;;2.15;;
31920;SDS011;66485;52.128;4.436;2023-05-09T03:33:13;3.03;;;1.95;;
31920;SDS011;66485;52.128;4.436;2023-05-09T03:35:39;2.90;;;1.70;;
31920;SDS011;66485;52.128;4.436;2023-05-09T03:38:04;3.17;;;1.83;;
31920;SDS011;66485;52.128;4.436;2023-05-09T03:40:29;3.65;;;2.22;;
31920;SDS011;66485;52.128;4.436;2023-05-09T03:42:55;4.28;;;2.08;;
31920;SDS011;66485;52.128;4.436;2023-05-09T03:45:20;3.60;;;2.08;;
31920;SDS011;66485;52.128;4.436;2023-05-09T03:47:45;2.60;;;1.92;;
31920;SDS011;66485;52.128;4.436;2023-05-09T03:50:11;2.95;;;1.90;;
31920;SDS011;66485;52.128;4.436;2023-05-09T03:52:36;3.17;;;2.03;;
31920;SDS011;66485;52.128;4.436;2023-05-09T03:55:02;4.03;;;2.08;;
31920;SDS011;66485;52.128;4.436;2023-05-09T03:57:28;3.55;;;2.20;;
31920;SDS011;66485;52.128;4.436;2023-05-09T03:59:53;4.03;;;1.98;;
31920;SDS011;66485;52.128;4.436;2023-05-09T04:02:18;2.90;;;1.70;;
31920;SDS011;66485;52.128;4.436;2023-05-09T04:04:43;3.80;;;2.17;;
31920;SDS011;66485;52.128;4.436;2023-05-09T04:07:11;4.43;;;2.13;;
31920;SDS011;66485;52.128;4.436;2023-05-09T04:09:36;3.55;;;1.98;;
31920;SDS011;66485;52.128;4.436;2023-05-09T04:12:01;4.05;;;1.95;;
31920;SDS011;66485;52.128;4.436;2023-05-09T04:14:27;2.83;;;1.67;;
31920;SDS011;66485;52.128;4.436;2023-05-09T04:16:52;2.88;;;1.88;;
31920;SDS011;66485;52.128;4.436;2023-05-09T04:19:18;2.95;;;1.70;;
31920;SDS011;66485;52.128;4.436;2023-05-09T04:21:43;2.78;;;1.98;;
31920;SDS011;66485;52.128;4.436;2023-05-09T04:24:08;2.92;;;1.88;;
31920;SDS011;66485;52.128;4.436;2023-05-09T04:26:34;3.28;;;2.08;;
31920;SDS011;66485;52.128;4.436;2023-05-09T04:29:02;3.15;;;1.85;;
31920;SDS011;66485;52.128;4.436;2023-05-09T04:31:28;3.67;;;1.70;;
31920;SDS011;66485;52.128;4.436;2023-05-09T04:33:53;4.13;;;2.13;;
31920;SDS011;66485;52.128;4.436;2023-05-09T04:36:18;3.00;;;1.80;;
31920;SDS011;66485;52.128;4.436;2023-05-09T04:38:45;3.20;;;1.70;;
31920;SDS011;66485;52.128;4.436;2023-05-09T04:41:10;3.45;;;1.80;;
31920;SDS011;66485;52.128;4.436;2023-05-09T04:43:35;3.88;;;2.20;;
31920;SDS011;66485;52.128;4.436;2023-05-09T04:46:01;3.42;;;1.88;;
31920;SDS011;66485;52.128;4.436;2023-05-09T04:48:26;3.88;;;2.10;;
31920;SDS011;66485;52.128;4.436;2023-05-09T04:50:51;4.38;;;2.00;;
31920;SDS011;66485;52.128;4.436;2023-05-09T04:53:17;2.92;;;1.83;;
31920;SDS011;66485;52.128;4.436;2023-05-09T04:55:42;3.72;;;1.80;;
31920;SDS011;66485;52.128;4.436;2023-05-09T04:58:08;2.50;;;1.92;;
31920;SDS011;66485;52.128;4.436;2023-05-09T05:00:33;2.97;;;1.75;;
31920;SDS011;66485;52.128;4.436;2023-05-09T05:02:59;3.03;;;2.00;;
31920;SDS011;66485;52.128;4.436;2023-05-09T05:05:24;3.13;;;1.95;;
31920;SDS011;66485;52.128;4.436;2023-05-09T05:07:50;3.63;;;2.10;;
31920;SDS011;66485;52.128;4.436;2023-05-09T05:10:15;2.80;;;1.80;;
31920;SDS011;66485;52.128;4.436;2023-05-09T05:12:40;2.90;;;1.83;;
31920;SDS011;66485;52.128;4.436;2023-05-09T05:15:06;3.05;;;1.80;;
31920;SDS011;66485;52.128;4.436;2023-05-09T05:17:31;3.25;;;2.20;;
31920;SDS011;66485;52.128;4.436;2023-05-09T05:19:57;4.00;;;1.88;;
31920;SDS011;66485;52.128;4.436;2023-05-09T05:22:22;2.67;;;1.60;;
31920;SDS011;66485;52.128;4.436;2023-05-09T05:24:48;2.75;;;1.80;;
31920;SDS011;66485;52.128;4.436;2023-05-09T05:27:13;2.97;;;1.80;;
31920;SDS011;66485;52.128;4.436;2023-05-09T05:29:39;2.43;;;1.63;;
31920;SDS011;66485;52.128;4.436;2023-05-09T05:32:04;2.35;;;1.65;;
31920;SDS011;66485;52.128;4.436;2023-05-09T05:34:29;3.03;;;1.90;;
31920;SDS011;66485;52.128;4.436;2023-05-09T05:36:55;2.42;;;1.73;;
31920;SDS011;66485;52.128;4.436;2023-05-09T05:39:20;3.28;;;1.83;;
31920;SDS011;66485;52.128;4.436;2023-05-09T05:41:46;3.00;;;1.73;;
31920;SDS011;66485;52.128;4.436;2023-05-09T05:44:11;3.58;;;1.70;;
31920;SDS011;66485;52.128;4.436;2023-05-09T05:46:36;2.63;;;1.75;;
31920;SDS011;66485;52.128;4.436;2023-05-09T05:49:02;2.50;;;1.70;;
31920;SDS011;66485;52.128;4.436;2023-05-09T05:51:27;2.88;;;1.80;;
31920;SDS011;66485;52.128;4.436;2023-05-09T05:53:52;3.20;;;2.10;;
31920;SDS011;66485;52.128;4.436;2023-05-09T05:56:18;3.03;;;1.75;;
31920;SDS011;66485;52.128;4.436;2023-05-09T05:58:43;3.37;;;2.17;;
31920;SDS011;66485;52.128;4.436;2023-05-09T06:01:08;3.30;;;1.88;;
31920;SDS011;66485;52.128;4.436;2023-05-09T06:03:34;3.33;;;1.90;;
31920;SDS011;66485;52.128;4.436;2023-05-09T06:05:59;3.47;;;1.98;;
31920;SDS011;66485;52.128;4.436;2023-05-09T06:08:24;3.88;;;1.70;;
31920;SDS011;66485;52.128;4.436;2023-05-09T06:10:50;2.92;;;1.95;;
31920;SDS011;66485;52.128;4.436;2023-05-09T06:13:15;2.65;;;1.75;;
31920;SDS011;66485;52.128;4.436;2023-05-09T06:15:40;3.63;;;1.90;;
31920;SDS011;66485;52.128;4.436;2023-05-09T06:18:06;2.78;;;1.65;;
31920;SDS011;66485;52.128;4.436;2023-05-09T06:20:32;3.30;;;2.15;;
31920;SDS011;66485;52.128;4.436;2023-05-09T06:22:58;3.75;;;1.90;;
31920;SDS011;66485;52.128;4.436;2023-05-09T06:25:23;2.22;;;1.52;;
31920;SDS011;66485;52.128;4.436;2023-05-09T06:27:49;2.60;;;1.70;;
31920;SDS011;66485;52.128;4.436;2023-05-09T06:30:14;4.27;;;1.93;;
31920;SDS011;66485;52.128;4.436;2023-05-09T06:32:39;3.10;;;2.08;;
31920;SDS011;66485;52.128;4.436;2023-05-09T06:35:05;2.50;;;1.65;;
31920;SDS011;66485;52.128;4.436;2023-05-09T06:37:33;3.45;;;1.73;;
31920;SDS011;66485;52.128;4.436;2023-05-09T06:39:59;2.75;;;1.88;;
31920;SDS011;66485;52.128;4.436;2023-05-09T06:42:24;2.83;;;1.90;;
31920;SDS011;66485;52.128;4.436;2023-05-09T06:44:50;2.88;;;1.80;;
31920;SDS011;66485;52.128;4.436;2023-05-09T06:47:15;3.53;;;1.80;;
31920;SDS011;66485;52.128;4.436;2023-05-09T06:49:41;3.42;;;1.58;;
31920;SDS011;66485;52.128;4.436;2023-05-09T06:52:06;2.95;;;1.98;;
31920;SDS011;66485;52.128;4.436;2023-05-09T06:54:32;3.72;;;1.80;;
31920;SDS011;66485;52.128;4.436;2023-05-09T06:56:57;3.33;;;2.00;;
31920;SDS011;66485;52.128;4.436;2023-05-09T06:59:23;3.70;;;2.13;;
31920;SDS011;66485;52.128;4.436;2023-05-09T07:01:49;3.00;;;1.90;;
31920;SDS011;66485;52.128;4.436;2023-05-09T07:04:14;3.17;;;1.92;;
31920;SDS011;66485;52.128;4.436;2023-05-09T07:06:39;2.60;;;1.70;;
31920;SDS011;66485;52.128;4.436;2023-05-09T07:09:05;2.28;;;1.58;;
31920;SDS011;66485;52.128;4.436;2023-05-09T07:11:36;3.45;;;1.90;;
31920;SDS011;66485;52.128;4.436;2023-05-09T07:16:27;4.15;;;1.95;;
31920;SDS011;66485;52.128;4.436;2023-05-09T07:18:53;2.70;;;1.70;;
31920;SDS011;66485;52.128;4.436;2023-05-09T07:21:19;4.40;;;1.90;;
31920;SDS011;66485;52.128;4.436;2023-05-09T07:23:44;3.55;;;1.80;;
31920;SDS011;66485;52.128;4.436;2023-05-09T07:26:09;3.80;;;2.00;;
31920;SDS011;66485;52.128;4.436;2023-05-09T07:28:35;2.78;;;1.90;;
31920;SDS011;66485;52.128;4.436;2023-05-09T07:31:00;2.72;;;1.90;;
31920;SDS011;66485;52.128;4.436;2023-05-09T07:33:26;4.15;;;1.80;;
31920;SDS011;66485;52.128;4.436;2023-05-09T07:35:51;2.72;;;1.67;;
31920;SDS011;66485;52.128;4.436;2023-05-09T07:38:17;3.92;;;1.80;;
31920;SDS011;66485;52.128;4.436;2023-05-09T07:40:42;3.67;;;1.98;;
31920;SDS011;66485;52.128;4.436;2023-05-09T07:43:07;3.50;;;1.83;;
31920;SDS011;66485;52.128;4.436;2023-05-09T07:45:33;3.53;;;1.90;;
31920;SDS011;66485;52.128;4.436;2023-05-09T07:47:58;4.15;;;2.05;;
31920;SDS011;66485;52.128;4.436;2023-05-09T07:50:24;5.07;;;2.00;;
31920;SDS011;66485;52.128;4.436;2023-05-09T07:52:49;2.83;;;1.88;;
31920;SDS011;66485;52.128;4.436;2023-05-09T07:55:15;3.60;;;1.92;;
31920;SDS011;66485;52.128;4.436;2023-05-09T07:57:41;3.13;;;2.00;;
31920;SDS011;66485;52.128;4.436;2023-05-09T08:00:06;2.80;;;1.80;;
31920;SDS011;66485;52.128;4.436;2023-05-09T08:02:32;2.55;;;1.55;;
31920;SDS011;66485;52.128;4.436;2023-05-09T08:04:58;2.72;;;1.80;;
31920;SDS011;66485;52.128;4.436;2023-05-09T08:07:23;3.20;;;1.90;;
31920;SDS011;66485;52.128;4.436;2023-05-09T08:09:48;2.65;;;1.50;;
31920;SDS011;66485;52.128;4.436;2023-05-09T08:12:14;2.88;;;1.70;;
31920;SDS011;66485;52.128;4.436;2023-05-09T08:14:39;2.58;;;1.60;;
31920;SDS011;66485;52.128;4.436;2023-05-09T08:17:05;2.85;;;1.70;;
31920;SDS011;66485;52.128;4.436;2023-05-09T08:19:30;3.72;;;2.03;;
31920;SDS011;66485;52.128;4.436;2023-05-09T08:21:55;4.22;;;2.22;;
31920;SDS011;66485;52.128;4.436;2023-05-09T08:24:21;2.67;;;1.77;;
31920;SDS011;66485;52.128;4.436;2023-05-09T08:26:46;2.88;;;1.70;;
31920;SDS011;66485;52.128;4.436;2023-05-09T08:29:11;2.92;;;1.73;;
31920;SDS011;66485;52.128;4.436;2023-05-09T08:31:37;3.42;;;1.90;;
31920;SDS011;66485;52.128;4.436;2023-05-09T08:34:02;4.40;;;1.77;;
31920;SDS011;66485;52.128;4.436;2023-05-09T08:36:27;3.13;;;2.00;;
31920;SDS011;66485;52.128;4.436;2023-05-09T08:38:53;2.42;;;1.60;;
31920;SDS011;66485;52.128;4.436;2023-05-09T08:41:18;2.80;;;1.60;;
31920;SDS011;66485;52.128;4.436;2023-05-09T08:43:50;5.22;;;1.90;;
31920;SDS011;66485;52.128;4.436;2023-05-09T08:46:16;4.00;;;1.73;;
31920;SDS011;66485;52.128;4.436;2023-05-09T08:48:46;3.20;;;1.80;;
31920;SDS011;66485;52.128;4.436;2023-05-09T08:51:12;2.42;;;1.52;;
31920;SDS011;66485;52.128;4.436;2023-05-09T08:53:39;2.17;;;1.52;;
31920;SDS011;66485;52.128;4.436;2023-05-09T08:56:07;2.78;;;1.70;;
31920;SDS011;66485;52.128;4.436;2023-05-09T08:58:33;3.15;;;1.77;;
31920;SDS011;66485;52.128;4.436;2023-05-09T09:00:58;2.50;;;1.60;;
31920;SDS011;66485;52.128;4.436;2023-05-09T09:03:25;3.50;;;1.73;;
31920;SDS011;66485;52.128;4.436;2023-05-09T09:05:51;2.55;;;1.65;;
31920;SDS011;66485;52.128;4.436;2023-05-09T09:08:18;2.92;;;1.70;;
31920;SDS011;66485;52.128;4.436;2023-05-09T09:10:43;3.33;;;2.00;;
31920;SDS011;66485;52.128;4.436;2023-05-09T09:13:13;3.85;;;1.75;;
31920;SDS011;66485;52.128;4.436;2023-05-09T09:15:42;2.55;;;1.50;;
31920;SDS011;66485;52.128;4.436;2023-05-09T09:18:11;2.95;;;1.83;;
31920;SDS011;66485;52.128;4.436;2023-05-09T09:20:47;2.40;;;1.65;;
31920;SDS011;66485;52.128;4.436;2023-05-09T09:23:18;2.92;;;2.00;;
31920;SDS011;66485;52.128;4.436;2023-05-09T09:25:45;2.38;;;1.50;;
31920;SDS011;66485;52.128;4.436;2023-05-09T09:28:11;2.72;;;1.60;;
31920;SDS011;66485;52.128;4.436;2023-05-09T09:30:42;2.47;;;1.70;;
31920;SDS011;66485;52.128;4.436;2023-05-09T09:33:08;3.75;;;1.75;;
31920;SDS011;66485;52.128;4.436;2023-05-09T09:35:37;4.18;;;1.65;;
31920;SDS011;66485;52.128;4.436;2023-05-09T09:38:04;3.13;;;1.60;;
31920;SDS011;66485;52.128;4.436;2023-05-09T09:40:30;3.47;;;1.73;;
31920;SDS011;66485;52.128;4.436;2023-05-09T09:42:55;2.50;;;1.50;;
31920;SDS011;66485;52.128;4.436;2023-05-09T09:45:21;2.40;;;1.52;;
31920;SDS011;66485;52.128;4.436;2023-05-09T09:47:47;3.33;;;1.48;;
31920;SDS011;66485;52.128;4.436;2023-05-09T09:52:52;2.38;;;1.23;;
31920;SDS011;66485;52.128;4.436;2023-05-09T09:55:22;2.85;;;1.55;;
31920;SDS011;66485;52.128;4.436;2023-05-09T09:57:48;2.80;;;1.60;;
31920;SDS011;66485;52.128;4.436;2023-05-09T10:00:15;2.47;;;1.58;;
31920;SDS011;66485;52.128;4.436;2023-05-09T10:02:45;2.15;;;1.52;;
31920;SDS011;66485;52.128;4.436;2023-05-09T10:05:29;2.60;;;1.63;;
31920;SDS011;66485;52.128;4.436;2023-05-09T10:10:30;2.55;;;1.45;;
31920;SDS011;66485;52.128;4.436;2023-05-09T10:12:58;2.83;;;1.73;;
31920;SDS011;66485;52.128;4.436;2023-05-09T10:15:28;2.40;;;1.58;;
31920;SDS011;66485;52.128;4.436;2023-05-09T10:17:56;2.97;;;1.48;;
31920;SDS011;66485;52.128;4.436;2023-05-09T10:20:23;2.45;;;1.58;;
31920;SDS011;66485;52.128;4.436;2023-05-09T10:22:49;2.08;;;1.40;;
31920;SDS011;66485;52.128;4.436;2023-05-09T10:25:19;2.28;;;1.60;;
31920;SDS011;66485;52.128;4.436;2023-05-09T10:27:45;2.53;;;1.58;;
31920;SDS011;66485;52.128;4.436;2023-05-09T10:30:21;2.83;;;1.55;;
31920;SDS011;66485;52.128;4.436;2023-05-09T10:35:35;2.85;;;1.50;;
31920;SDS011;66485;52.128;4.436;2023-05-09T10:38:04;2.60;;;1.30;;
31920;SDS011;66485;52.128;4.436;2023-05-09T10:40:31;2.55;;;1.67;;
31920;SDS011;66485;52.128;4.436;2023-05-09T10:42:57;2.30;;;1.48;;
31920;SDS011;66485;52.128;4.436;2023-05-09T10:45:22;2.20;;;1.50;;
31920;SDS011;66485;52.128;4.436;2023-05-09T10:47:49;2.78;;;1.65;;
31920;SDS011;66485;52.128;4.436;2023-05-09T10:50:16;2.40;;;1.50;;
31920;SDS011;66485;52.128;4.436;2023-05-09T11:00:44;2.33;;;1.30;;
31920;SDS011;66485;52.128;4.436;2023-05-09T11:03:10;2.33;;;1.45;;
31920;SDS011;66485;52.128;4.436;2023-05-09T11:05:38;2.20;;;1.40;;
31920;SDS011;66485;52.128;4.436;2023-05-09T11:08:16;2.35;;;1.48;;
31920;SDS011;66485;52.128;4.436;2023-05-09T11:10:49;2.58;;;1.55;;
31920;SDS011;66485;52.128;4.436;2023-05-09T11:13:19;3.22;;;1.50;;
31920;SDS011;66485;52.128;4.436;2023-05-09T11:18:28;2.55;;;1.50;;
31920;SDS011;66485;52.128;4.436;2023-05-09T11:20:54;3.88;;;1.70;;
31920;SDS011;66485;52.128;4.436;2023-05-09T11:23:20;2.63;;;1.40;;
31920;SDS011;66485;52.128;4.436;2023-05-09T11:25:49;2.20;;;1.30;;
31920;SDS011;66485;52.128;4.436;2023-05-09T11:28:27;2.50;;;1.30;;
31920;SDS011;66485;52.128;4.436;2023-05-09T11:31:07;2.40;;;1.48;;
31920;SDS011;66485;52.128;4.436;2023-05-09T11:33:34;2.15;;;1.58;;
31920;SDS011;66485;52.128;4.436;2023-05-09T11:36:44;2.10;;;1.38;;
31920;SDS011;66485;52.128;4.436;2023-05-09T11:44:10;2.17;;;1.30;;
31920;SDS011;66485;52.128;4.436;2023-05-09T11:46:40;2.55;;;1.50;;
31920;SDS011;66485;52.128;4.436;2023-05-09T11:49:06;2.40;;;1.60;;
31920;SDS011;66485;52.128;4.436;2023-05-09T11:51:34;3.03;;;1.55;;
31920;SDS011;66485;52.128;4.436;2023-05-09T11:54:01;2.03;;;1.40;;
31920;SDS011;66485;52.128;4.436;2023-05-09T11:56:26;1.80;;;1.27;;
31920;SDS011;66485;52.128;4.436;2023-05-09T11:58:54;3.00;;;1.40;;
31920;SDS011;66485;52.128;4.436;2023-05-09T12:01:19;2.72;;;1.38;;
31920;SDS011;66485;52.128;4.436;2023-05-09T12:03:47;2.67;;;1.70;;
31920;SDS011;66485;52.128;4.436;2023-05-09T12:06:16;1.98;;;1.35;;
31920;SDS011;66485;52.128;4.436;2023-05-09T12:08:43;2.53;;;1.23;;
31920;SDS011;66485;52.128;4.436;2023-05-09T12:11:09;2.70;;;1.50;;
31920;SDS011;66485;52.128;4.436;2023-05-09T12:13:35;2.55;;;1.30;;
31920;SDS011;66485;52.128;4.436;2023-05-09T12:16:08;1.55;;;1.10;;
31920;SDS011;66485;52.128;4.436;2023-05-09T12:18:33;2.03;;;1.40;;
31920;SDS011;66485;52.128;4.436;2023-05-09T12:20:59;1.88;;;1.30;;
31920;SDS011;66485;52.128;4.436;2023-05-09T12:23:25;2.45;;;1.63;;
31920;SDS011;66485;52.128;4.436;2023-05-09T12:25:54;2.03;;;1.23;;
31920;SDS011;66485;52.128;4.436;2023-05-09T12:28:24;2.17;;;1.70;;
31920;SDS011;66485;52.128;4.436;2023-05-09T12:30:50;1.88;;;1.50;;
31920;SDS011;66485;52.128;4.436;2023-05-09T12:33:16;2.22;;;1.45;;
31920;SDS011;66485;52.128;4.436;2023-05-09T12:35:45;2.03;;;1.30;;
31920;SDS011;66485;52.128;4.436;2023-05-09T12:38:13;2.35;;;1.45;;
31920;SDS011;66485;52.128;4.436;2023-05-09T12:40:46;2.90;;;1.55;;
31920;SDS011;66485;52.128;4.436;2023-05-09T12:43:12;2.22;;;1.30;;
31920;SDS011;66485;52.128;4.436;2023-05-09T12:45:37;1.88;;;1.33;;
31920;SDS011;66485;52.128;4.436;2023-05-09T12:48:03;2.40;;;1.20;;
31920;SDS011;66485;52.128;4.436;2023-05-09T12:50:30;1.85;;;1.27;;
31920;SDS011;66485;52.128;4.436;2023-05-09T12:53:00;2.42;;;1.60;;
31920;SDS011;66485;52.128;4.436;2023-05-09T12:55:26;1.83;;;1.20;;
31920;SDS011;66485;52.128;4.436;2023-05-09T12:57:58;2.20;;;1.50;;
31920;SDS011;66485;52.128;4.436;2023-05-09T13:00:25;2.00;;;1.33;;
31920;SDS011;66485;52.128;4.436;2023-05-09T13:02:51;3.35;;;1.30;;
31920;SDS011;66485;52.128;4.436;2023-05-09T13:05:17;2.42;;;1.20;;
31920;SDS011;66485;52.128;4.436;2023-05-09T13:07:45;1.98;;;1.38;;
31920;SDS011;66485;52.128;4.436;2023-05-09T13:12:42;2.85;;;1.35;;
31920;SDS011;66485;52.128;4.436;2023-05-09T13:15:13;2.22;;;1.10;;
31920;SDS011;66485;52.128;4.436;2023-05-09T13:17:40;1.73;;;1.15;;
31920;SDS011;66485;52.128;4.436;2023-05-09T13:20:05;2.35;;;1.50;;
31920;SDS011;66485;52.128;4.436;2023-05-09T13:22:32;2.83;;;1.42;;
31920;SDS011;66485;52.128;4.436;2023-05-09T13:24:58;2.10;;;1.30;;
31920;SDS011;66485;52.128;4.436;2023-05-09T13:27:23;2.10;;;1.30;;
31920;SDS011;66485;52.128;4.436;2023-05-09T13:29:48;2.58;;;1.40;;
31920;SDS011;66485;52.128;4.436;2023-05-09T13:32:14;1.90;;;1.30;;
31920;SDS011;66485;52.128;4.436;2023-05-09T13:34:39;1.92;;;1.20;;
31920;SDS011;66485;52.128;4.436;2023-05-09T13:37:05;1.88;;;1.30;;
31920;SDS011;66485;52.128;4.436;2023-05-09T13:39:30;2.03;;;1.48;;
31920;SDS011;66485;52.128;4.436;2023-05-09T13:41:56;2.20;;;1.40;;
31920;SDS011;66485;52.128;4.436;2023-05-09T13:44:21;1.73;;;1.17;;
31920;SDS011;66485;52.128;4.436;2023-05-09T13:46:47;2.15;;;1.35;;
31920;SDS011;66485;52.128;4.436;2023-05-09T13:49:13;2.20;;;1.20;;
31920;SDS011;66485;52.128;4.436;2023-05-09T13:51:39;1.38;;;1.05;;
31920;SDS011;66485;52.128;4.436;2023-05-09T13:54:04;2.45;;;1.13;;
31920;SDS011;66485;52.128;4.436;2023-05-09T13:56:33;2.95;;;1.20;;
31920;SDS011;66485;52.128;4.436;2023-05-09T13:58:58;1.92;;;1.30;;
31920;SDS011;66485;52.128;4.436;2023-05-09T14:01:24;2.42;;;1.25;;
31920;SDS011;66485;52.128;4.436;2023-05-09T14:03:49;1.83;;;1.30;;
31920;SDS011;66485;52.128;4.436;2023-05-09T14:06:14;2.30;;;1.30;;
31920;SDS011;66485;52.128;4.436;2023-05-09T14:08:40;1.42;;;0.95;;
31920;SDS011;66485;52.128;4.436;2023-05-09T14:11:05;2.08;;;1.10;;
31920;SDS011;66485;52.128;4.436;2023-05-09T14:13:31;1.70;;;1.20;;
31920;SDS011;66485;52.128;4.436;2023-05-09T14:15:57;2.20;;;1.30;;
31920;SDS011;66485;52.128;4.436;2023-05-09T14:18:22;1.75;;;1.20;;
31920;SDS011;66485;52.128;4.436;2023-05-09T14:20:47;2.00;;;1.30;;
31920;SDS011;66485;52.128;4.436;2023-05-09T14:23:13;1.60;;;1.10;;
31920;SDS011;66485;52.128;4.436;2023-05-09T14:25:38;2.15;;;1.30;;
31920;SDS011;66485;52.128;4.436;2023-05-09T14:28:03;2.30;;;1.25;;
31920;SDS011;66485;52.128;4.436;2023-05-09T14:30:30;1.75;;;1.20;;
31920;SDS011;66485;52.128;4.436;2023-05-09T14:32:56;2.17;;;1.30;;
31920;SDS011;66485;52.128;4.436;2023-05-09T14:35:21;1.75;;;1.08;;
31920;SDS011;66485;52.128;4.436;2023-05-09T14:37:47;2.58;;;1.35;;
31920;SDS011;66485;52.128;4.436;2023-05-09T14:40:12;2.00;;;1.00;;
31920;SDS011;66485;52.128;4.436;2023-05-09T14:42:38;2.47;;;1.27;;
31920;SDS011;66485;52.128;4.436;2023-05-09T14:45:04;2.08;;;1.38;;
31920;SDS011;66485;52.128;4.436;2023-05-09T14:47:31;2.15;;;1.38;;
31920;SDS011;66485;52.128;4.436;2023-05-09T14:49:57;1.70;;;1.20;;
31920;SDS011;66485;52.128;4.436;2023-05-09T14:52:22;1.67;;;1.15;;
31920;SDS011;66485;52.128;4.436;2023-05-09T14:54:48;2.10;;;1.23;;
31920;SDS011;66485;52.128;4.436;2023-05-09T14:57:13;1.77;;;1.17;;
31920;SDS011;66485;52.128;4.436;2023-05-09T14:59:38;1.75;;;1.10;;
31920;SDS011;66485;52.128;4.436;2023-05-09T15:02:03;3.75;;;1.27;;
31920;SDS011;66485;52.128;4.436;2023-05-09T15:04:29;1.83;;;1.23;;
31920;SDS011;66485;52.128;4.436;2023-05-09T15:06:55;1.25;;;0.95;;
31920;SDS011;66485;52.128;4.436;2023-05-09T15:09:21;1.55;;;1.05;;
31920;SDS011;66485;52.128;4.436;2023-05-09T15:11:46;1.80;;;1.25;;
31920;SDS011;66485;52.128;4.436;2023-05-09T15:14:12;1.80;;;1.15;;
31920;SDS011;66485;52.128;4.436;2023-05-09T15:16:37;1.80;;;1.20;;
31920;SDS011;66485;52.128;4.436;2023-05-09T15:19:03;1.77;;;1.10;;
31920;SDS011;66485;52.128;4.436;2023-05-09T15:21:29;1.65;;;1.10;;
31920;SDS011;66485;52.128;4.436;2023-05-09T15:23:54;3.33;;;1.00;;
31920;SDS011;66485;52.128;4.436;2023-05-09T15:26:19;2.47;;;1.23;;
31920;SDS011;66485;52.128;4.436;2023-05-09T15:28:45;2.03;;;1.35;;